METAR Data
IDs: Format: Raw Decoded Include TAF

Data at: 0841 UTC 07 Dec 2021

KCLW 070735Z AUTO 00000KT 1/4SM FG OVC002 17/17 A3006 RMK AO2
KCLW 070715Z AUTO 00000KT 1/4SM FG OVC002 17/17 A3006 RMK AO2
KCLW 070655Z AUTO 00000KT 1/4SM FG OVC002 17/17 A3007 RMK AO2
KCLW 070635Z AUTO 00000KT 1/4SM FG OVC002 17/17 A3007 RMK AO2
KCLW 070615Z AUTO 00000KT 1/4SM FG OVC002 17/17 A3007 RMK AO2
KCLW 070555Z AUTO 00000KT 1/4SM FG OVC002 17/17 A3007 RMK AO2
KCLW 070535Z AUTO 00000KT 1/4SM FG OVC002 17/17 A3008 RMK AO2
KCLW 070515Z AUTO 00000KT 1/4SM FG OVC002 17/17 A3009 RMK AO2
KCLW 070455Z AUTO 00000KT 1/4SM FG OVC002 17/17 A3009 RMK AO2
KCLW 070435Z AUTO 00000KT 1/4SM FG OVC002 18/17 A3010 RMK AO2
KCLW 070415Z AUTO 00000KT 1/4SM FG OVC002 18/17 A3011 RMK AO2
KCLW 070355Z AUTO 00000KT M1/4SM FG OVC002 18/17 A3012 RMK AO2
KCLW 070335Z AUTO 00000KT M1/4SM FG OVC002 18/17 A3012 RMK AO2
KCLW 070315Z AUTO 00000KT M1/4SM FG OVC002 18/17 A3012 RMK AO2
KCLW 070255Z AUTO 00000KT M1/4SM FG OVC002 18/18 A3012 RMK AO2
KCLW 070235Z AUTO 00000KT 1/4SM FG OVC002 18/18 A3012 RMK AO2
KCLW 070215Z AUTO 00000KT 1/4SM FG OVC002 18/18 A3012 RMK AO2
KCLW 070155Z AUTO 00000KT 1/4SM FG OVC002 18/18 A3012 RMK AO2
KCLW 070135Z AUTO 00000KT 1/4SM FG OVC002 18/18 A3012 RMK AO2
KCLW 070115Z AUTO 00000KT 1/4SM FG OVC002 18/18 A3012 RMK AO2
KCLW 070055Z AUTO 00000KT M1/4SM FG OVC002 18/18 A3011 RMK AO2
KCLW 070035Z AUTO 00000KT 1 1/4SM BR OVC002 18/18 A3010 RMK AO2
KCLW 070015Z AUTO 00000KT 10SM BKN002 19/18 A3010 RMK AO2
KCLW 062355Z AUTO 00000KT 10SM CLR 19/17 A3010 RMK AO2
KCLW 062335Z AUTO 00000KT 10SM CLR 19/18 A3009 RMK AO2
KCLW 062315Z AUTO 00000KT 10SM CLR 20/18 A3008 RMK AO2
KCLW 062255Z AUTO 00000KT 10SM CLR 20/18 A3006 RMK AO2
KCLW 062235Z AUTO 00000KT 10SM CLR 21/18 A3006 RMK AO2
KCLW 062215Z AUTO 00000KT 10SM CLR 21/18 A3006 RMK AO2 PWINO
KCLW 062155Z AUTO 00000KT 10SM CLR 21/18 A3005 RMK AO2
KCLW 062135Z AUTO 26003KT 10SM CLR 21/18 A3006 RMK AO2 PWINO
KCLW 062115Z AUTO 29004KT 10SM CLR 22/18 A3006 RMK AO2
KCLW 062055Z AUTO 25003KT 10SM CLR 22/17 A3006 RMK AO2
KCLW 062035Z AUTO 26004KT 10SM CLR 23/17 A3005 RMK AO2 PWINO
KCLW 062015Z AUTO 27005KT 10SM CLR 24/17 A3006 RMK AO2 PWINO
KCLW 061955Z AUTO 27006KT 10SM CLR 25/17 A3006 RMK AO2 PWINO
KCLW 061935Z AUTO 25004KT 10SM CLR 25/17 A3006 RMK AO2 PWINO
KCLW 061915Z AUTO 24006KT 10SM CLR 25/17 A3006 RMK AO2 PWINO
KCLW 061855Z AUTO 27006KT 10SM SCT029 25/18 A3007 RMK AO2 PWINO
KCLW 061835Z AUTO 25004KT 10SM SCT027 25/18 A3007 RMK AO2 PWINO
KCLW 061815Z AUTO 24006KT 10SM SCT028 26/17 A3008 RMK AO2 PWINO
KCLW 061755Z AUTO 20005KT 10SM SCT028 25/18 A3008 RMK AO2 PWINO
KCLW 061735Z AUTO 21006KT 10SM CLR 25/18 A3009 RMK AO2 PWINO
KCLW 061715Z AUTO 21006KT 10SM CLR 25/18 A3011 RMK AO2
KCLW 061655Z AUTO 17003KT 10SM SCT020 24/19 A3011 RMK AO2
KCLW 061635Z AUTO 19007KT 150V210 10SM CLR 23/19 A3012 RMK AO2
KCLW 061615Z AUTO 00000KT 10SM CLR 23/19 A3013 RMK AO2
KCLW 061555Z AUTO 00000KT 10SM SCT004 22/19 A3014 RMK AO2
KCLW 061535Z AUTO 16004KT 4SM BR OVC002 20/20 A3015 RMK AO2
KCLW 061515Z AUTO 13004KT 3/4SM BR OVC002 19/18 A3016 RMK AO2
KCLW 061455Z AUTO 16004KT 1/2SM FG OVC002 19/18 A3015 RMK AO2
KCLW 061435Z AUTO 13003KT 1/4SM FG OVC002 19/18 A3015 RMK AO2
KCLW 061415Z AUTO 12003KT 1/4SM FG OVC002 18/18 A3015 RMK AO2
KCLW 061355Z AUTO 14004KT 1/4SM FG OVC002 18/18 A3014 RMK AO2
KCLW 061335Z AUTO 13004KT 1/4SM FG OVC002 18/18 A3014 RMK AO2
KCLW 061315Z AUTO 13005KT 1/2SM FG OVC004 18/18 A3013 RMK AO2
KCLW 061255Z AUTO 12004KT 3SM BR SCT004 17/17 A3013 RMK AO2
KCLW 061235Z AUTO 00000KT 3SM BR CLR 17/17 A3013 RMK AO2
KCLW 061215Z AUTO 00000KT 4SM BR CLR 17/17 A3012 RMK AO2
KCLW 061155Z AUTO 00000KT 5SM BR CLR 17/16 A3012 RMK AO2
KCLW 061135Z AUTO 00000KT 7SM CLR 17/16 A3011 RMK AO2
KCLW 061115Z AUTO 13004KT 10SM CLR 17/16 A3010 RMK AO2
KCLW 061055Z AUTO 13003KT 10SM CLR 17/16 A3010 RMK AO2
KCLW 061035Z AUTO 00000KT 10SM CLR 15/13 A3010 RMK AO2
KCLW 061015Z AUTO 00000KT 10SM CLR 15/14 A3010 RMK AO2
KCLW 060955Z AUTO 00000KT 10SM CLR 15/14 A3010 RMK AO2
KCLW 060935Z AUTO 00000KT 10SM CLR 15/14 A3010 RMK AO2
KCLW 060915Z AUTO 00000KT 10SM CLR 15/14 A3011 RMK AO2
KCLW 060855Z AUTO 00000KT 10SM CLR 15/14 A3010 RMK AO2
KCLW 060835Z AUTO 00000KT 10SM CLR 15/14 A3010 RMK AO2
KCLW 060815Z AUTO 00000KT 10SM CLR 16/15 A3010 RMK AO2
KCLW 060755Z AUTO 00000KT 10SM CLR 16/15 A3010 RMK AO2
KCLW 060735Z AUTO 00000KT 10SM CLR 16/15 A3010 RMK AO2
KCLW 060715Z AUTO 00000KT 10SM CLR 17/14 A3011 RMK AO2
KCLW 060655Z AUTO 00000KT 10SM CLR 17/14 A3012 RMK AO2
KCLW 060635Z AUTO 00000KT 10SM CLR 17/14 A3013 RMK AO2
KCLW 060615Z AUTO 00000KT 10SM CLR 17/14 A3013 RMK AO2
KCLW 060555Z AUTO 00000KT 10SM CLR 17/13 A3013 RMK AO2
KCLW 060535Z AUTO 00000KT 10SM CLR 17/13 A3013 RMK AO2
KCLW 060515Z AUTO 08003KT 10SM CLR 17/13 A3014 RMK AO2
KCLW 060455Z AUTO 00000KT 10SM SCT055 16/13 A3015 RMK AO2
KCLW 060435Z AUTO 00000KT 10SM SCT055 17/13 A3015 RMK AO2
KCLW 060415Z AUTO 00000KT 10SM SCT060 17/13 A3015 RMK AO2
KCLW 060355Z AUTO 00000KT 10SM SCT060 17/13 A3015 RMK AO2
KCLW 060335Z AUTO 00000KT 10SM SCT060 17/13 A3015 RMK AO2
KCLW 060315Z AUTO 00000KT 10SM SCT060 18/13 A3015 RMK AO2
KCLW 060255Z AUTO 00000KT 10SM SCT060 18/13 A3015 RMK AO2
KCLW 060235Z AUTO 00000KT 10SM SCT060 18/13 A3014 RMK AO2
KCLW 060215Z AUTO 00000KT 10SM SCT045 BKN060 19/14 A3014 RMK AO2
KCLW 060155Z AUTO 00000KT 10SM SCT045 BKN050 19/14 A3014 RMK AO2
KCLW 060135Z AUTO 00000KT 10SM BKN045 BKN050 18/14 A3014 RMK AO2
KCLW 060115Z AUTO 00000KT 10SM SCT045 18/14 A3013 RMK AO2
KCLW 060055Z AUTO 00000KT 10SM CLR 18/14 A3012 RMK AO2
KCLW 060035Z AUTO 00000KT 10SM CLR 18/14 A3012 RMK AO2
KCLW 060015Z AUTO 00000KT 10SM SCT050 18/14 A3012 RMK AO2
KCLW 052355Z AUTO 00000KT 10SM CLR 19/14 A3011 RMK AO2
KCLW 052335Z AUTO 00000KT 10SM CLR 19/14 A3011 RMK AO2
KCLW 052315Z AUTO 00000KT 10SM CLR 19/15 A3010 RMK AO2
KCLW 052255Z AUTO 00000KT 10SM CLR 20/15 A3010 RMK AO2
KCLW 052235Z AUTO 00000KT 10SM CLR 20/15 A3009 RMK AO2
KCLW 052215Z AUTO 34003KT 10SM CLR 20/15 A3009 RMK AO2
KCLW 052155Z AUTO 35003KT 10SM CLR 21/15 A3010 RMK AO2
KCLW 052135Z AUTO 32003KT 10SM CLR 21/15 A3009 RMK AO2
KCLW 052115Z AUTO 31005KT 10SM CLR 21/15 A3010 RMK AO2
KCLW 052055Z AUTO 32005KT 10SM CLR 21/15 A3010 RMK AO2